Time;durP1;ratioP1;P1;durP2;ratioP2;P2;SDS_P1;SDS_P2;PMS_P1;PMS_P2;Temp;Humidity;BMP_temperature;BMP_pressure;BME280_temperature;BME280_humidity;BME280_pressure;Samples;Min_cycle;Max_cycle;Signal;HPM_P1;HPM_P2
2023/05/29 00:00:23;;;;;;;5.18;3.22;;;14.10;95.70;;;;;;1971914;28;20497;-63
2023/05/29 00:01:23;;;;;;;4.85;3.20;;;14.10;95.90;;;;;;1970514;28;20539;-65
2023/05/29 00:02:21;;;;;;;4.85;2.92;;;14.10;96.30;;;;;;1972561;28;20075;-64
2023/05/29 00:03:18;;;;;;;3.92;3.00;;;14.00;96.40;;;;;;1971268;28;20118;-64
2023/05/29 00:04:16;;;;;;;10.60;2.97;;;14.00;96.50;;;;;;1971024;28;20083;-63
2023/05/29 00:05:14;;;;;;;4.90;2.97;;;14.00;96.50;;;;;;1970938;28;20063;-63
2023/05/29 00:06:12;;;;;;;3.97;2.60;;;13.90;96.60;;;;;;1970214;28;20044;-65
2023/05/29 00:07:10;;;;;;;5.15;2.90;;;13.90;97.00;;;;;;1971132;28;20025;-64
2023/05/29 00:08:07;;;;;;;3.28;2.70;;;13.90;97.00;;;;;;1972315;28;20525;-64
2023/05/29 00:09:05;;;;;;;4.88;2.97;;;13.90;97.10;;;;;;1969624;28;20036;-64
2023/05/29 00:10:02;;;;;;;3.92;2.83;;;13.90;96.80;;;;;;1973508;28;20474;-65
2023/05/29 00:11:00;;;;;;;4.32;2.70;;;13.90;96.90;;;;;;1971433;28;20898;-63
2023/05/29 00:11:58;;;;;;;3.80;2.92;;;13.90;97.00;;;;;;1971862;28;20037;-64
2023/05/29 00:12:56;;;;;;;5.10;2.75;;;13.90;97.20;;;;;;1971133;28;20034;-63
2023/05/29 00:13:53;;;;;;;4.38;2.75;;;13.90;97.10;;;;;;1968986;28;20044;-64
2023/05/29 00:14:51;;;;;;;5.85;3.17;;;13.90;97.30;;;;;;1973003;28;20041;-65
2023/05/29 00:15:48;;;;;;;4.47;3.05;;;13.90;97.20;;;;;;1971962;28;20124;-63
2023/05/29 00:16:46;;;;;;;4.00;3.20;;;13.90;97.80;;;;;;1970945;28;20034;-63
2023/05/29 00:17:44;;;;;;;4.53;2.83;;;13.90;97.40;;;;;;1971300;28;20087;-65
2023/05/29 00:18:45;;;;;;;4.88;2.97;;;13.80;97.60;;;;;;1972327;28;20442;-63
2023/05/29 00:19:43;;;;;;;4.82;2.78;;;13.80;97.90;;;;;;1972110;28;20025;-64
2023/05/29 00:20:40;;;;;;;4.63;3.00;;;13.80;97.60;;;;;;1971966;28;20111;-64
2023/05/29 00:21:38;;;;;;;4.78;3.17;;;13.70;97.80;;;;;;1972164;28;20029;-63
2023/05/29 00:22:38;;;;;;;4.85;2.58;;;13.80;98.00;;;;;;1971568;28;20391;-63
2023/05/29 00:23:36;;;;;;;4.05;2.85;;;13.70;98.00;;;;;;1970923;28;20028;-63
2023/05/29 00:24:33;;;;;;;6.93;3.17;;;13.70;98.20;;;;;;1971623;28;20044;-64
2023/05/29 00:25:31;;;;;;;5.32;3.10;;;13.80;98.00;;;;;;1972682;28;20037;-64
2023/05/29 00:26:29;;;;;;;5.97;2.70;;;13.70;98.20;;;;;;1967728;28;20120;-66
2023/05/29 00:27:26;;;;;;;7.95;3.20;;;13.60;98.20;;;;;;1971246;28;20038;-65
2023/05/29 00:28:24;;;;;;;4.60;3.00;;;13.70;98.20;;;;;;1973871;28;20025;-63
2023/05/29 00:29:22;;;;;;;4.25;2.92;;;13.60;98.50;;;;;;1971659;28;20037;-64
2023/05/29 00:30:19;;;;;;;5.57;3.33;;;13.60;98.30;;;;;;1973317;28;20617;-64
2023/05/29 00:31:17;;;;;;;5.97;3.13;;;13.60;98.50;;;;;;1970239;28;20048;-64
2023/05/29 00:32:15;;;;;;;5.32;2.83;;;13.60;98.70;;;;;;1971981;28;20037;-64
2023/05/29 00:33:12;;;;;;;6.43;3.13;;;13.60;98.90;;;;;;1972064;28;20474;-63
2023/05/29 00:34:10;;;;;;;6.07;3.33;;;13.60;98.70;;;;;;1972781;28;20059;-64
2023/05/29 00:35:08;;;;;;;5.63;3.28;;;13.70;98.90;;;;;;1971650;28;20467;-63
2023/05/29 00:36:07;;;;;;;6.22;3.08;;;13.60;99.10;;;;;;1971198;28;20017;-64
2023/05/29 00:37:05;;;;;;;4.85;2.78;;;13.50;99.10;;;;;;1973584;28;20030;-64
2023/05/29 00:38:03;;;;;;;7.57;3.42;;;13.50;99.20;;;;;;1970522;28;20394;-65
2023/05/29 00:39:00;;;;;;;3.63;3.10;;;13.50;99.30;;;;;;1971491;28;20145;-63
2023/05/29 00:39:58;;;;;;;6.20;2.80;;;13.60;99.20;;;;;;1973783;28;20020;-64
2023/05/29 00:40:55;;;;;;;6.50;2.92;;;13.50;99.40;;;;;;1971056;28;20043;-65
2023/05/29 00:41:53;;;;;;;3.85;2.65;;;12.20;99.10;;;;;;1973994;28;20037;-64
2023/05/29 00:42:50;;;;;;;5.55;2.90;;;13.50;99.40;;;;;;1968302;28;20033;-64
2023/05/29 00:43:48;;;;;;;4.22;2.90;;;13.50;99.60;;;;;;1971352;28;20105;-64
2023/05/29 00:44:46;;;;;;;5.90;2.70;;;13.50;99.80;;;;;;1969225;28;20414;-64
2023/05/29 00:45:43;;;;;;;6.45;3.35;;;13.40;99.90;;;;;;1971786;28;20018;-64
2023/05/29 00:46:41;;;;;;;5.05;2.60;;;13.40;99.90;;;;;;1971445;28;20036;-65
2023/05/29 00:47:40;;;;;;;4.32;2.92;;;13.40;99.90;;;;;;1971524;28;20026;-64
2023/05/29 00:48:37;;;;;;;6.28;3.35;;;13.30;99.90;;;;;;1970550;28;20049;-64
2023/05/29 00:49:36;;;;;;;4.35;2.72;;;13.20;99.90;;;;;;1970946;28;20097;-65
2023/05/29 00:50:33;;;;;;;4.63;2.80;;;13.30;99.90;;;;;;1972266;28;20041;-64
2023/05/29 00:51:31;;;;;;;3.75;3.13;;;13.30;99.90;;;;;;1970765;28;20060;-65
2023/05/29 00:52:28;;;;;;;4.93;3.22;;;13.30;99.90;;;;;;1971227;28;20037;-65
2023/05/29 00:53:26;;;;;;;4.57;2.85;;;12.30;99.90;;;;;;1962058;28;20495;-63
2023/05/29 00:54:28;;;;;;;7.13;3.47;;;13.30;99.90;;;;;;1960592;28;20029;-64
2023/05/29 00:55:25;;;;;;;4.20;2.55;;;13.30;99.90;;;;;;1963871;28;20026;-65
2023/05/29 00:56:23;;;;;;;4.70;3.08;;;13.30;99.90;;;;;;1967770;28;20136;-65
2023/05/29 00:57:21;;;;;;;9.20;3.45;;;13.30;99.90;;;;;;1972405;28;20021;-64
2023/05/29 00:58:19;;;;;;;3.97;2.70;;;13.30;99.90;;;;;;1973602;28;20029;-65
2023/05/29 00:59:18;;;;;;;6.00;2.72;;;13.30;99.90;;;;;;1971761;28;20101;-63
2023/05/29 01:00:16;;;;;;;4.30;2.88;;;13.20;99.90;;;;;;1971603;28;20024;-64
2023/05/29 01:01:13;;;;;;;12.68;3.55;;;13.20;99.90;;;;;;1970490;28;20060;-65
2023/05/29 01:02:11;;;;;;;5.68;3.30;;;13.20;99.90;;;;;;1969402;28;20021;-64
2023/05/29 01:03:09;;;;;;;4.72;3.08;;;13.10;99.90;;;;;;1971475;28;20064;-63
2023/05/29 01:04:06;;;;;;;5.90;2.95;;;13.10;99.90;;;;;;1970306;28;20029;-63
2023/05/29 01:05:05;;;;;;;7.63;3.03;;;13.10;99.90;;;;;;1972670;28;20021;-65
2023/05/29 01:06:03;;;;;;;4.38;3.00;;;13.10;99.90;;;;;;1972080;28;20021;-63
2023/05/29 01:07:02;;;;;;;3.70;2.72;;;13.10;99.90;;;;;;1971338;28;20099;-63
2023/05/29 01:07:59;;;;;;;6.47;3.60;;;13.10;99.90;;;;;;1970680;28;20109;-64
2023/05/29 01:08:57;;;;;;;5.97;3.22;;;13.10;99.90;;;;;;1967865;28;20072;-64
2023/05/29 01:09:54;;;;;;;4.40;3.05;;;13.10;99.90;;;;;;1972252;28;20134;-64
2023/05/29 01:10:53;;;;;;;7.45;3.40;;;13.00;99.90;;;;;;1971118;28;20120;-64
2023/05/29 01:12:23;;;;;;;6.45;3.30;;;13.00;99.90;;;;;;1964016;28;20489;-66
2023/05/29 01:13:23;;;;;;;5.13;3.15;;;13.00;99.90;;;;;;1953850;28;20443;-64
2023/05/29 01:14:42;;;;;;;5.70;3.17;;;13.10;99.90;;;;;;1957459;28;20384;-64
2023/05/29 01:15:44;;;;;;;8.15;3.60;;;13.10;99.90;;;;;;1971229;28;20029;-63
2023/05/29 01:17:03;;;;;;;6.22;3.50;;;13.00;99.90;;;;;;1970403;28;20028;-65
2023/05/29 01:18:06;;;;;;;9.23;3.72;;;13.00;99.90;;;;;;1962426;28;20530;-65
2023/05/29 01:19:15;;;;;;;10.25;3.72;;;13.00;99.90;;;;;;1959554;28;20022;-64
2023/05/29 01:20:35;;;;;;;7.78;3.67;;;13.00;99.90;;;;;;1965343;28;20020;-63
2023/05/29 01:21:55;;;;;;;7.68;3.42;;;13.00;99.90;;;;;;1972759;28;20076;-64
2023/05/29 01:23:04;;;;;;;4.70;3.60;;;12.90;99.90;;;;;;1974353;28;20045;-63
2023/05/29 01:24:23;;;;;;;9.25;3.38;;;12.80;99.90;;;;;;1968090;28;20029;-64
2023/05/29 01:25:30;;;;;;;7.35;3.80;;;12.80;99.90;;;;;;1971702;28;20494;-64
2023/05/29 01:26:33;;;;;;;7.97;3.42;;;12.70;99.90;;;;;;1969394;28;20036;-64
2023/05/29 01:27:30;;;;;;;9.68;3.35;;;12.70;99.90;;;;;;1972536;28;20027;-63
2023/05/29 01:28:32;;;;;;;6.25;2.85;;;12.80;99.90;;;;;;1971139;28;20040;-65
2023/05/29 01:29:31;;;;;;;;;;;12.70;99.90;;;;;;1964495;28;20018;-64
2023/05/29 01:30:28;;;;;;;9.43;3.50;;;12.70;99.90;;;;;;1960523;28;19909;-64
2023/05/29 01:31:26;;;;;;;12.75;4.05;;;12.60;99.90;;;;;;1964176;28;20044;-64
2023/05/29 01:32:24;;;;;;;7.05;3.28;;;12.60;99.90;;;;;;1969981;28;20076;-65
2023/05/29 01:33:22;;;;;;;6.05;3.63;;;12.40;99.90;;;;;;1969694;28;20030;-64
2023/05/29 01:34:20;;;;;;;11.43;3.95;;;12.60;99.90;;;;;;1970814;28;20052;-64
2023/05/29 01:35:17;;;;;;;7.90;3.22;;;12.50;99.90;;;;;;1971500;28;20049;-65
2023/05/29 01:36:15;;;;;;;7.68;3.90;;;12.50;99.90;;;;;;1971281;28;20080;-63
2023/05/29 01:37:13;;;;;;;6.18;3.50;;;12.50;99.90;;;;;;1970813;28;22316;-64
2023/05/29 01:38:10;;;;;;;9.90;3.70;;;12.50;99.90;;;;;;1974120;28;20043;-63
2023/05/29 01:39:09;;;;;;;5.40;3.35;;;12.50;99.90;;;;;;1973814;28;20123;-64
2023/05/29 01:40:07;;;;;;;9.50;3.13;;;12.50;99.90;;;;;;1971267;28;20021;-65
2023/05/29 01:41:04;;;;;;;7.10;3.30;;;12.50;99.90;;;;;;1963794;28;20030;-65
2023/05/29 01:42:02;;;;;;;9.30;3.75;;;12.40;99.90;;;;;;1971282;28;20060;-64
2023/05/29 01:43:00;;;;;;;8.60;3.88;;;12.40;99.90;;;;;;1971563;28;20020;-65
2023/05/29 01:43:58;;;;;;;9.95;3.75;;;12.40;99.90;;;;;;1973099;28;20107;-64
2023/05/29 01:44:56;;;;;;;10.05;4.05;;;12.40;99.90;;;;;;1971716;28;20042;-64
2023/05/29 01:45:53;;;;;;;16.67;3.88;;;12.30;99.90;;;;;;1971569;28;20063;-63
2023/05/29 01:46:51;;;;;;;10.98;3.88;;;12.30;99.90;;;;;;1971610;28;20056;-65
2023/05/29 01:47:48;;;;;;;10.07;4.05;;;12.30;99.90;;;;;;1973453;28;20104;-64
2023/05/29 01:48:46;;;;;;;12.48;4.57;;;12.30;99.90;;;;;;1972746;28;20022;-64
2023/05/29 01:49:43;;;;;;;11.02;4.28;;;12.30;99.90;;;;;;1972750;28;20501;-63
2023/05/29 01:50:43;;;;;;;12.75;3.88;;;12.30;99.90;;;;;;1971259;28;21056;-65
2023/05/29 01:51:41;;;;;;;15.30;4.05;;;12.30;99.90;;;;;;1970903;28;20465;-63
2023/05/29 01:52:38;;;;;;;10.55;3.25;;;12.20;99.90;;;;;;1973675;28;20045;-64
2023/05/29 01:53:36;;;;;;;13.15;3.83;;;12.20;99.90;;;;;;1961727;28;20491;-64
2023/05/29 01:54:34;;;;;;;5.97;2.92;;;12.20;99.90;;;;;;1971135;28;20029;-64
2023/05/29 01:55:31;;;;;;;9.93;3.30;;;12.10;99.90;;;;;;1970867;28;20083;-64
2023/05/29 01:56:29;;;;;;;10.88;3.88;;;12.10;99.90;;;;;;1957194;28;20015;-63
2023/05/29 01:57:27;;;;;;;16.80;4.20;;;12.10;99.90;;;;;;1963537;28;20030;-63
2023/05/29 01:58:24;;;;;;;8.55;3.47;;;12.10;99.90;;;;;;1971437;28;20026;-64
2023/05/29 01:59:22;;;;;;;12.40;3.80;;;12.00;99.90;;;;;;1965696;28;20029;-65
2023/05/29 02:00:20;;;;;;;13.60;3.85;;;12.00;99.90;;;;;;1965391;28;20061;-64
2023/05/29 02:01:17;;;;;;;18.08;4.13;;;12.00;99.90;;;;;;1962623;28;20034;-65
2023/05/29 02:02:15;;;;;;;13.50;4.28;;;11.90;99.90;;;;;;1961424;28;20100;-63
2023/05/29 02:03:12;;;;;;;10.85;3.80;;;11.90;99.90;;;;;;1968545;28;20075;-64
2023/05/29 02:04:10;;;;;;;10.77;4.07;;;11.90;99.90;;;;;;1972308;28;20076;-65
2023/05/29 02:05:08;;;;;;;5.47;3.38;;;11.90;99.90;;;;;;1972231;28;20095;-64
2023/05/29 02:06:06;;;;;;;9.25;3.75;;;11.90;99.90;;;;;;1973858;28;20033;-63
2023/05/29 02:07:04;;;;;;;10.27;3.85;;;11.90;99.90;;;;;;1970787;28;20028;-65
2023/05/29 02:08:02;;;;;;;6.45;3.40;;;11.90;99.90;;;;;;1973275;28;20624;-65
2023/05/29 02:09:00;;;;;;;7.90;3.33;;;11.80;99.90;;;;;;1973745;28;20030;-63
2023/05/29 02:09:57;;;;;;;12.90;4.10;;;11.80;99.90;;;;;;1973392;28;20463;-63
2023/05/29 02:10:55;;;;;;;10.25;3.30;;;11.80;99.90;;;;;;1970952;28;20494;-64
2023/05/29 02:11:52;;;;;;;12.93;4.25;;;11.70;99.90;;;;;;1972003;28;20097;-66
2023/05/29 02:12:50;;;;;;;9.85;4.00;;;11.70;99.90;;;;;;1971664;28;20413;-63
2023/05/29 02:13:47;;;;;;;17.88;4.30;;;11.80;99.90;;;;;;1972401;28;20052;-63
2023/05/29 02:14:46;;;;;;;11.02;4.05;;;11.70;99.90;;;;;;1971527;28;20021;-64
2023/05/29 02:15:44;;;;;;;7.03;3.17;;;11.70;99.90;;;;;;1974809;28;20386;-63
2023/05/29 02:16:43;;;;;;;8.48;4.38;;;11.70;99.90;;;;;;1971184;28;20029;-63
2023/05/29 02:17:41;;;;;;;10.68;3.60;;;11.70;99.90;;;;;;1972736;28;20087;-64
2023/05/29 02:18:39;;;;;;;9.77;4.35;;;11.70;99.90;;;;;;1973591;28;20018;-64
2023/05/29 02:19:36;;;;;;;11.98;3.88;;;11.80;99.90;;;;;;1970293;28;20036;-65
2023/05/29 02:20:34;;;;;;;9.13;3.72;;;11.80;99.90;;;;;;1972457;28;20022;-63
2023/05/29 02:21:32;;;;;;;8.38;3.83;;;11.70;99.90;;;;;;1971192;28;20022;-63
2023/05/29 02:22:29;;;;;;;8.30;3.65;;;11.70;99.90;;;;;;1972236;28;20029;-64
2023/05/29 02:23:27;;;;;;;12.07;3.75;;;11.70;99.90;;;;;;1967821;28;20077;-64
2023/05/29 02:24:24;;;;;;;6.95;3.17;;;11.70;99.90;;;;;;1973206;28;20017;-65
2023/05/29 02:25:22;;;;;;;9.38;3.70;;;11.60;99.90;;;;;;1971995;28;20030;-63
2023/05/29 02:26:20;;;;;;;9.75;3.65;;;11.70;99.90;;;;;;1971292;28;20037;-63
2023/05/29 02:27:18;;;;;;;10.57;3.53;;;11.70;99.90;;;;;;1971236;28;20025;-63
2023/05/29 02:28:15;;;;;;;13.10;3.88;;;11.70;99.90;;;;;;1971524;28;20358;-64
2023/05/29 02:29:13;;;;;;;6.97;3.67;;;11.60;99.90;;;;;;1970213;28;20026;-64
2023/05/29 02:30:11;;;;;;;10.30;4.05;;;11.60;99.90;;;;;;1974833;28;20053;-64
2023/05/29 02:31:08;;;;;;;12.95;4.32;;;11.60;99.90;;;;;;1971103;28;20112;-64
2023/05/29 02:32:06;;;;;;;7.25;3.53;;;11.60;99.90;;;;;;1971462;28;20041;-64
2023/05/29 02:33:03;;;;;;;13.65;3.28;;;11.60;99.90;;;;;;1972831;28;20419;-64
2023/05/29 02:34:01;;;;;;;6.95;3.65;;;11.50;99.90;;;;;;1971627;28;20026;-66
2023/05/29 02:34:58;;;;;;;12.15;3.83;;;11.50;99.90;;;;;;1973730;28;20021;-63
2023/05/29 02:35:56;;;;;;;7.28;3.40;;;11.50;99.90;;;;;;1974426;28;20026;-63
2023/05/29 02:36:54;;;;;;;12.43;4.68;;;11.40;99.90;;;;;;1972122;28;20039;-64
2023/05/29 02:37:52;;;;;;;12.82;4.07;;;11.50;99.90;;;;;;1973726;28;20018;-65
2023/05/29 02:38:49;;;;;;;10.35;4.15;;;11.50;99.90;;;;;;1971998;28;20394;-64
2023/05/29 02:39:47;;;;;;;14.30;3.90;;;11.50;99.90;;;;;;1972588;28;20025;-64
2023/05/29 02:40:44;;;;;;;13.20;4.28;;;11.40;99.90;;;;;;1971316;28;20080;-64
2023/05/29 02:41:42;;;;;;;14.63;4.07;;;11.40;99.90;;;;;;1974146;28;20506;-63
2023/05/29 02:42:39;;;;;;;21.17;4.50;;;11.30;99.90;;;;;;1971782;28;20079;-64
2023/05/29 02:43:37;;;;;;;13.57;4.00;;;11.30;99.90;;;;;;1972424;28;20103;-64
2023/05/29 02:44:34;;;;;;;11.02;4.05;;;11.40;99.90;;;;;;1970727;28;20045;-65
2023/05/29 02:45:32;;;;;;;10.98;3.95;;;11.30;99.90;;;;;;1970808;28;20411;-65
2023/05/29 02:46:29;;;;;;;10.77;3.85;;;11.30;99.90;;;;;;1973806;28;20108;-64
2023/05/29 02:47:27;;;;;;;12.93;4.47;;;11.30;99.90;;;;;;1973012;28;20094;-63
2023/05/29 02:48:25;;;;;;;10.38;3.83;;;11.20;99.90;;;;;;1969114;28;20068;-64
2023/05/29 02:49:23;;;;;;;10.55;3.75;;;11.20;99.90;;;;;;1972407;28;20021;-63
2023/05/29 02:50:23;;;;;;;10.02;3.85;;;11.30;99.90;;;;;;1971324;28;20037;-65
2023/05/29 02:51:21;;;;;;;9.38;4.72;;;11.20;99.90;;;;;;1971216;28;20053;-64
2023/05/29 02:52:18;;;;;;;14.90;4.45;;;11.20;99.90;;;;;;1975087;28;20375;-63
2023/05/29 02:53:16;;;;;;;11.32;4.05;;;11.20;99.90;;;;;;1970364;28;20087;-64
2023/05/29 02:54:13;;;;;;;10.50;3.90;;;11.10;99.90;;;;;;1971589;28;20027;-63
2023/05/29 02:55:11;;;;;;;20.40;4.28;;;11.10;99.90;;;;;;1973153;28;20029;-64
2023/05/29 02:56:09;;;;;;;16.40;4.55;;;11.20;99.90;;;;;;1972275;28;20096;-66
2023/05/29 02:57:06;;;;;;;11.48;3.97;;;11.10;99.90;;;;;;1972847;28;20028;-65
2023/05/29 02:58:04;;;;;;;15.63;4.25;;;11.10;99.90;;;;;;1975202;28;20036;-65
2023/05/29 02:59:01;;;;;;;8.68;3.30;;;11.10;99.90;;;;;;1973770;28;20163;-64
2023/05/29 03:00:00;;;;;;;15.20;3.92;;;11.10;99.90;;;;;;1973454;28;20058;-65
2023/05/29 03:00:58;;;;;;;9.98;4.07;;;11.10;99.90;;;;;;1974432;28;20459;-64
2023/05/29 03:01:55;;;;;;;11.25;3.78;;;11.10;99.90;;;;;;1972147;28;20026;-63
2023/05/29 03:02:53;;;;;;;12.75;4.03;;;11.10;99.90;;;;;;1971318;28;21676;-64
2023/05/29 03:03:51;;;;;;;15.25;4.63;;;11.00;99.90;;;;;;1971538;28;20029;-65
2023/05/29 03:04:52;;;;;;;16.73;4.03;;;11.10;99.90;;;;;;1971638;28;20538;-64
2023/05/29 03:05:49;;;;;;;12.75;3.75;;;11.10;99.90;;;;;;1972529;28;20093;-64
2023/05/29 03:06:47;;;;;;;9.88;4.20;;;11.10;99.90;;;;;;1969386;28;20045;-66
2023/05/29 03:07:48;;;;;;;11.02;3.95;;;11.00;99.90;;;;;;1971233;28;20115;-63
2023/05/29 03:08:46;;;;;;;15.02;4.40;;;11.00;99.90;;;;;;1973077;28;20022;-64
2023/05/29 03:09:44;;;;;;;10.73;3.85;;;10.90;99.90;;;;;;1969921;28;20575;-64
2023/05/29 03:10:43;;;;;;;9.38;3.85;;;10.90;99.90;;;;;;1970948;28;20037;-63
2023/05/29 03:11:41;;;;;;;12.45;4.43;;;10.80;99.90;;;;;;1971257;28;20025;-64
2023/05/29 03:12:39;;;;;;;23.70;4.25;;;10.80;99.90;;;;;;1971927;28;20026;-63
2023/05/29 03:13:39;;;;;;;11.13;3.50;;;10.80;99.90;;;;;;1973501;28;20115;-66
2023/05/29 03:14:37;;;;;;;11.25;3.65;;;10.80;99.90;;;;;;1972477;28;20097;-65
2023/05/29 03:15:34;;;;;;;12.40;3.47;;;10.80;99.90;;;;;;1972878;28;20018;-63
2023/05/29 03:16:32;;;;;;;10.88;3.88;;;10.80;99.90;;;;;;1970294;28;20136;-63
2023/05/29 03:17:29;;;;;;;19.67;4.22;;;10.80;99.90;;;;;;1971086;28;20562;-63
2023/05/29 03:18:27;;;;;;;12.10;3.97;;;10.90;99.90;;;;;;1971817;28;20026;-64
2023/05/29 03:19:24;;;;;;;15.40;4.15;;;10.80;99.90;;;;;;1971748;28;20032;-63
2023/05/29 03:20:22;;;;;;;12.00;4.50;;;10.80;99.90;;;;;;1972182;28;20092;-64
2023/05/29 03:21:19;;;;;;;13.00;4.10;;;10.80;99.90;;;;;;1971532;28;20035;-65
2023/05/29 03:22:17;;;;;;;13.32;4.53;;;10.80;99.90;;;;;;1972885;28;20501;-63
2023/05/29 03:23:14;;;;;;;10.80;3.72;;;10.80;99.90;;;;;;1972490;28;20026;-63
2023/05/29 03:24:15;;;;;;;14.15;4.10;;;10.80;99.90;;;;;;1971854;28;20240;-64
2023/05/29 03:25:13;;;;;;;13.65;4.40;;;10.80;99.90;;;;;;1974290;28;20024;-63
2023/05/29 03:26:12;;;;;;;8.82;3.67;;;10.70;99.90;;;;;;1972714;28;20029;-63
2023/05/29 03:27:10;;;;;;;8.00;3.85;;;10.70;99.90;;;;;;1973693;28;20090;-65
2023/05/29 03:28:08;;;;;;;13.25;4.45;;;10.70;99.90;;;;;;1972467;28;20040;-65
2023/05/29 03:29:05;;;;;;;11.35;3.90;;;10.70;99.90;;;;;;1970408;28;20028;-65
2023/05/29 03:30:03;;;;;;;15.10;3.72;;;10.70;99.90;;;;;;1970101;28;20544;-64
2023/05/29 03:31:01;;;;;;;9.25;4.00;;;10.80;99.90;;;;;;1973126;28;20087;-63
2023/05/29 03:31:59;;;;;;;17.17;4.10;;;10.70;99.90;;;;;;1971457;28;22553;-65
2023/05/29 03:32:56;;;;;;;14.20;3.72;;;10.70;99.90;;;;;;1971684;28;20041;-63
2023/05/29 03:33:54;;;;;;;19.83;4.70;;;10.70;99.90;;;;;;1970829;28;20159;-65
2023/05/29 03:34:51;;;;;;;13.20;3.65;;;10.60;99.90;;;;;;1972079;28;20037;-64
2023/05/29 03:35:49;;;;;;;14.23;3.85;;;10.60;99.90;;;;;;1975043;28;20021;-64
2023/05/29 03:36:46;;;;;;;15.93;4.13;;;10.60;99.90;;;;;;1970778;28;20034;-63
2023/05/29 03:37:44;;;;;;;10.57;3.88;;;10.60;99.90;;;;;;1974174;28;20018;-64
2023/05/29 03:38:41;;;;;;;14.90;4.25;;;10.60;99.90;;;;;;1974364;28;20017;-65
2023/05/29 03:39:39;;;;;;;11.15;3.45;;;10.60;99.90;;;;;;1970271;28;20029;-65
2023/05/29 03:40:37;;;;;;;13.98;3.67;;;10.60;99.90;;;;;;1971853;28;20053;-64
2023/05/29 03:41:34;;;;;;;17.35;4.38;;;10.50;99.90;;;;;;1973099;28;20025;-64
2023/05/29 03:42:32;;;;;;;16.38;4.07;;;10.50;99.90;;;;;;1971050;28;20320;-63
2023/05/29 03:43:29;;;;;;;14.10;3.95;;;10.60;99.90;;;;;;1971702;28;20060;-64
2023/05/29 03:44:27;;;;;;;10.93;3.97;;;10.60;99.90;;;;;;1973136;28;20117;-63
2023/05/29 03:45:25;;;;;;;8.68;3.42;;;10.60;99.90;;;;;;1969992;28;20030;-64
2023/05/29 03:46:23;;;;;;;9.25;3.72;;;10.50;99.90;;;;;;1971582;28;20025;-63
2023/05/29 03:47:20;;;;;;;18.95;3.58;;;11.10;99.90;;;;;;1972492;28;20029;-65
2023/05/29 03:48:18;;;;;;;15.95;4.13;;;10.60;99.90;;;;;;1973428;28;20392;-64
2023/05/29 03:49:15;;;;;;;10.70;3.92;;;10.60;99.90;;;;;;1971595;28;20033;-63
2023/05/29 03:50:15;;;;;;;16.10;3.85;;;10.60;99.90;;;;;;1972836;28;20076;-64
2023/05/29 03:51:12;;;;;;;12.40;4.25;;;10.60;99.90;;;;;;1970854;28;20165;-65
2023/05/29 03:52:10;;;;;;;12.30;3.70;;;10.50;99.90;;;;;;1971746;28;20581;-64
2023/05/29 03:53:07;;;;;;;17.70;4.43;;;10.60;99.90;;;;;;1972406;28;20132;-65
2023/05/29 03:54:05;;;;;;;11.70;3.67;;;10.60;99.90;;;;;;1970601;28;20025;-64
2023/05/29 03:55:03;;;;;;;12.38;4.20;;;10.60;99.90;;;;;;1972659;28;20106;-65
2023/05/29 03:56:00;;;;;;;8.75;3.45;;;10.60;99.90;;;;;;1972618;28;20041;-62
2023/05/29 03:56:58;;;;;;;8.95;3.88;;;10.60;99.90;;;;;;1972767;28;20033;-63
2023/05/29 03:57:55;;;;;;;16.60;4.63;;;10.60;99.90;;;;;;1972878;28;20025;-62
2023/05/29 03:58:53;;;;;;;15.10;4.03;;;10.60;99.90;;;;;;1974644;28;20179;-65
2023/05/29 03:59:50;;;;;;;13.63;4.60;;;10.60;99.90;;;;;;1973600;28;20053;-63
2023/05/29 04:00:48;;;;;;;17.42;4.18;;;10.50;99.90;;;;;;1971429;28;20033;-63
2023/05/29 04:01:45;;;;;;;14.85;3.78;;;10.50;99.90;;;;;;1972290;28;20429;-63
2023/05/29 04:02:43;;;;;;;11.90;4.22;;;10.50;99.90;;;;;;1972741;28;20030;-64
2023/05/29 04:03:40;;;;;;;14.98;3.88;;;10.50;99.90;;;;;;1972598;28;20485;-63
2023/05/29 04:04:39;;;;;;;10.00;4.07;;;10.50;99.90;;;;;;1974947;28;20021;-63
2023/05/29 04:05:37;;;;;;;15.63;4.32;;;10.50;99.90;;;;;;1967999;28;20255;-65
2023/05/29 04:06:38;;;;;;;15.43;4.20;;;10.50;99.90;;;;;;1973716;28;20096;-63
2023/05/29 04:07:38;;;;;;;9.68;4.03;;;10.50;99.90;;;;;;1972170;28;20045;-63
2023/05/29 04:08:36;;;;;;;12.57;4.13;;;10.50;99.90;;;;;;1971305;28;20033;-64
2023/05/29 04:09:34;;;;;;;15.13;3.97;;;10.50;99.90;;;;;;1971429;28;20434;-64
2023/05/29 04:10:34;;;;;;;14.13;4.05;;;10.60;99.90;;;;;;1970709;28;20137;-64
2023/05/29 04:11:34;;;;;;;18.58;4.55;;;10.60;99.90;;;;;;1971159;28;20098;-64
2023/05/29 04:12:32;;;;;;;13.63;4.05;;;10.50;99.90;;;;;;1974121;28;20374;-64
2023/05/29 04:13:30;;;;;;;11.98;4.22;;;10.60;99.90;;;;;;1973828;28;20025;-63
2023/05/29 04:14:28;;;;;;;8.93;3.80;;;10.50;99.90;;;;;;1972741;28;20482;-65
2023/05/29 04:15:26;;;;;;;14.98;4.03;;;10.50;99.90;;;;;;1975722;28;20719;-64
2023/05/29 04:16:24;;;;;;;11.57;4.70;;;10.50;99.90;;;;;;1970787;28;20139;-65
2023/05/29 04:17:21;;;;;;;16.58;4.90;;;10.50;99.90;;;;;;1972057;28;20502;-66
2023/05/29 04:18:20;;;;;;;14.98;4.82;;;10.50;99.90;;;;;;1971632;28;20100;-63
2023/05/29 04:19:17;;;;;;;18.15;4.45;;;10.50;99.90;;;;;;1972776;28;20048;-64
2023/05/29 04:20:15;;;;;;;11.23;4.80;;;10.50;99.90;;;;;;1975038;28;20028;-63
2023/05/29 04:21:13;;;;;;;15.65;4.45;;;10.70;99.90;;;;;;1970825;28;20796;-66
2023/05/29 04:22:10;;;;;;;17.13;4.75;;;10.50;99.90;;;;;;1972023;28;20071;-63
2023/05/29 04:23:08;;;;;;;19.23;4.10;;;10.50;99.90;;;;;;1976194;28;20027;-65
2023/05/29 04:24:06;;;;;;;19.35;4.70;;;10.50;99.90;;;;;;1970800;28;20167;-64
2023/05/29 04:25:04;;;;;;;11.45;4.28;;;10.50;99.90;;;;;;1972733;28;20483;-64
2023/05/29 04:26:02;;;;;;;15.35;4.70;;;10.50;99.90;;;;;;1972974;28;20075;-64
2023/05/29 04:27:00;;;;;;;16.20;4.10;;;10.50;99.90;;;;;;1971027;28;21918;-63
2023/05/29 04:28:00;;;;;;;13.13;3.90;;;10.50;99.90;;;;;;1974209;28;20091;-64
2023/05/29 04:28:58;;;;;;;10.52;4.13;;;10.50;99.90;;;;;;1971978;28;20036;-63
2023/05/29 04:29:55;;;;;;;14.50;4.35;;;10.60;99.90;;;;;;1973614;28;20021;-63
2023/05/29 04:30:55;;;;;;;12.77;4.65;;;10.60;99.90;;;;;;1972093;28;20045;-63
2023/05/29 04:31:53;;;;;;;12.90;4.70;;;10.60;99.90;;;;;;1971354;28;20095;-64
2023/05/29 04:32:51;;;;;;;10.63;3.67;;;10.60;99.90;;;;;;1973153;28;20078;-64
2023/05/29 04:33:49;;;;;;;21.80;4.82;;;10.50;99.90;;;;;;1972144;28;20018;-63
2023/05/29 04:34:47;;;;;;;14.02;4.95;;;10.60;99.90;;;;;;1971927;28;20021;-63
2023/05/29 04:35:45;;;;;;;12.30;4.70;;;10.50;99.90;;;;;;1972200;28;21752;-63
2023/05/29 04:36:43;;;;;;;17.25;4.78;;;10.50;99.90;;;;;;1972291;28;20112;-64
2023/05/29 04:37:41;;;;;;;20.08;4.82;;;10.50;99.90;;;;;;1972998;28;20025;-63
2023/05/29 04:38:39;;;;;;;17.77;4.75;;;10.50;99.90;;;;;;1973540;28;20021;-65
2023/05/29 04:39:37;;;;;;;14.50;4.97;;;10.50;99.90;;;;;;1974904;28;20033;-64
2023/05/29 04:40:36;;;;;;;15.18;4.72;;;10.50;99.90;;;;;;1973465;28;20022;-65
2023/05/29 04:41:35;;;;;;;16.98;5.15;;;10.50;99.90;;;;;;1971935;28;20033;-63
2023/05/29 04:42:33;;;;;;;20.98;5.57;;;10.50;99.90;;;;;;1972252;28;20021;-64
2023/05/29 04:43:31;;;;;;;19.88;4.72;;;10.50;99.90;;;;;;1969930;28;20408;-64
2023/05/29 04:44:29;;;;;;;13.15;4.25;;;10.60;99.90;;;;;;1973259;28;20037;-64
2023/05/29 04:45:27;;;;;;;16.85;5.03;;;10.60;99.90;;;;;;1973210;28;20469;-64
2023/05/29 04:46:25;;;;;;;12.77;4.03;;;10.70;99.90;;;;;;1971114;28;20025;-64
2023/05/29 04:47:22;;;;;;;15.68;5.10;;;10.70;99.90;;;;;;1972888;28;20394;-64
2023/05/29 04:48:20;;;;;;;12.90;4.57;;;10.70;99.90;;;;;;1973011;28;20022;-63
2023/05/29 04:49:18;;;;;;;15.27;4.60;;;10.70;99.90;;;;;;1971273;28;20493;-65
2023/05/29 04:50:17;;;;;;;14.90;4.95;;;10.70;99.90;;;;;;1973445;28;20104;-64
2023/05/29 04:51:16;;;;;;;17.70;4.82;;;10.70;99.90;;;;;;1970661;28;20022;-65
2023/05/29 04:52:15;;;;;;;14.88;4.90;;;10.70;99.90;;;;;;1972992;28;20014;-63
2023/05/29 04:53:12;;;;;;;21.52;4.88;;;10.80;99.90;;;;;;1973527;28;20026;-64
2023/05/29 04:54:11;;;;;;;14.63;4.75;;;10.70;99.90;;;;;;1971605;28;20029;-63
2023/05/29 04:55:08;;;;;;;10.95;3.88;;;10.70;99.90;;;;;;1971785;28;20022;-63
2023/05/29 04:56:06;;;;;;;10.43;3.75;;;10.80;99.90;;;;;;1973648;28;20022;-64
2023/05/29 04:57:03;;;;;;;14.13;4.10;;;10.70;99.90;;;;;;1974043;28;20026;-64
2023/05/29 04:58:01;;;;;;;14.50;4.55;;;10.70;99.90;;;;;;1970281;28;20055;-64
2023/05/29 04:58:59;;;;;;;14.25;4.93;;;10.80;99.90;;;;;;1972439;28;20040;-64
2023/05/29 04:59:56;;;;;;;24.30;4.55;;;10.80;99.90;;;;;;1968723;28;20742;-63
2023/05/29 05:00:57;;;;;;;15.55;4.55;;;10.80;99.90;;;;;;1971045;28;20065;-63
2023/05/29 05:01:55;;;;;;;13.77;4.45;;;10.80;99.90;;;;;;1971482;28;20037;-64